sensor_id;sensor_type;location;lat;lon;timestamp;temperature;humidity
67157;SHT31;54086;50.126;8.710;2024-03-02T00:02:13;6.24;94.57
67157;SHT31;54086;50.126;8.710;2024-03-02T00:04:39;6.14;94.58
67157;SHT31;54086;50.126;8.710;2024-03-02T00:07:06;6.20;94.70
67157;SHT31;54086;50.126;8.710;2024-03-02T00:09:31;6.13;94.68
67157;SHT31;54086;50.126;8.710;2024-03-02T00:12:00;6.17;94.70
67157;SHT31;54086;50.126;8.710;2024-03-02T00:14:29;6.14;94.76
67157;SHT31;54086;50.126;8.710;2024-03-02T00:16:55;6.14;94.81
67157;SHT31;54086;50.126;8.710;2024-03-02T00:19:21;6.04;95.11
67157;SHT31;54086;50.126;8.710;2024-03-02T00:21:47;6.09;95.13
67157;SHT31;54086;50.126;8.710;2024-03-02T00:24:33;6.10;95.03
67157;SHT31;54086;50.126;8.710;2024-03-02T00:26:59;6.06;95.08
67157;SHT31;54086;50.126;8.710;2024-03-02T00:29:25;6.03;95.31
67157;SHT31;54086;50.126;8.710;2024-03-02T00:31:50;6.03;95.19
67157;SHT31;54086;50.126;8.710;2024-03-02T00:34:17;5.99;95.29
67157;SHT31;54086;50.126;8.710;2024-03-02T00:36:43;5.93;95.52
67157;SHT31;54086;50.126;8.710;2024-03-02T00:39:08;5.94;95.53
67157;SHT31;54086;50.126;8.710;2024-03-02T00:41:37;5.94;95.42
67157;SHT31;54086;50.126;8.710;2024-03-02T00:44:03;5.97;95.46
67157;SHT31;54086;50.126;8.710;2024-03-02T00:46:38;5.94;95.52
67157;SHT31;54086;50.126;8.710;2024-03-02T00:49:05;5.91;95.68
67157;SHT31;54086;50.126;8.710;2024-03-02T00:51:32;5.91;95.80
67157;SHT31;54086;50.126;8.710;2024-03-02T00:54:00;6.00;95.73
67157;SHT31;54086;50.126;8.710;2024-03-02T00:56:26;5.99;95.54
67157;SHT31;54086;50.126;8.710;2024-03-02T00:58:52;5.89;95.72
67157;SHT31;54086;50.126;8.710;2024-03-02T01:01:18;5.81;95.83
67157;SHT31;54086;50.126;8.710;2024-03-02T01:03:46;5.81;95.89
67157;SHT31;54086;50.126;8.710;2024-03-02T01:06:12;5.85;96.05
67157;SHT31;54086;50.126;8.710;2024-03-02T01:08:38;5.86;95.97
67157;SHT31;54086;50.126;8.710;2024-03-02T01:11:04;5.94;95.85
67157;SHT31;54086;50.126;8.710;2024-03-02T01:13:31;5.90;95.89
67157;SHT31;54086;50.126;8.710;2024-03-02T01:15:56;5.93;95.96
67157;SHT31;54086;50.126;8.710;2024-03-02T01:18:22;5.93;95.93
67157;SHT31;54086;50.126;8.710;2024-03-02T01:20:48;6.03;95.79
67157;SHT31;54086;50.126;8.710;2024-03-02T01:23:13;6.03;95.41
67157;SHT31;54086;50.126;8.710;2024-03-02T01:25:39;6.04;95.38
67157;SHT31;54086;50.126;8.710;2024-03-02T01:28:05;5.91;95.61
67157;SHT31;54086;50.126;8.710;2024-03-02T01:30:30;5.93;95.62
67157;SHT31;54086;50.126;8.710;2024-03-02T01:32:56;5.96;95.44
67157;SHT31;54086;50.126;8.710;2024-03-02T01:35:21;5.93;95.37
67157;SHT31;54086;50.126;8.710;2024-03-02T01:37:46;5.85;95.54
67157;SHT31;54086;50.126;8.710;2024-03-02T01:40:12;5.87;95.63
67157;SHT31;54086;50.126;8.710;2024-03-02T01:42:38;5.81;95.84
67157;SHT31;54086;50.126;8.710;2024-03-02T01:45:05;5.79;95.97
67157;SHT31;54086;50.126;8.710;2024-03-02T01:47:31;5.87;96.02
67157;SHT31;54086;50.126;8.710;2024-03-02T01:49:57;5.80;96.00
67157;SHT31;54086;50.126;8.710;2024-03-02T01:52:23;5.79;95.91
67157;SHT31;54086;50.126;8.710;2024-03-02T01:54:49;5.76;96.02
67157;SHT31;54086;50.126;8.710;2024-03-02T01:57:14;5.73;96.13
67157;SHT31;54086;50.126;8.710;2024-03-02T01:59:40;5.77;96.04
67157;SHT31;54086;50.126;8.710;2024-03-02T02:02:05;5.65;96.33
67157;SHT31;54086;50.126;8.710;2024-03-02T02:04:31;5.63;96.29
67157;SHT31;54086;50.126;8.710;2024-03-02T02:06:56;5.59;96.37
67157;SHT31;54086;50.126;8.710;2024-03-02T02:09:22;5.65;96.11
67157;SHT31;54086;50.126;8.710;2024-03-02T02:11:47;5.49;96.37
67157;SHT31;54086;50.126;8.710;2024-03-02T02:14:14;5.43;96.49
67157;SHT31;54086;50.126;8.710;2024-03-02T02:16:41;5.50;96.35
67157;SHT31;54086;50.126;8.710;2024-03-02T02:19:06;5.45;96.54
67157;SHT31;54086;50.126;8.710;2024-03-02T02:21:31;5.39;96.56
67157;SHT31;54086;50.126;8.710;2024-03-02T02:23:57;5.43;96.63
67157;SHT31;54086;50.126;8.710;2024-03-02T02:26:22;5.28;96.78
67157;SHT31;54086;50.126;8.710;2024-03-02T02:28:47;5.22;97.12
67157;SHT31;54086;50.126;8.710;2024-03-02T02:31:13;5.21;97.38
67157;SHT31;54086;50.126;8.710;2024-03-02T02:33:40;5.32;97.43
67157;SHT31;54086;50.126;8.710;2024-03-02T02:36:05;5.35;97.29
67157;SHT31;54086;50.126;8.710;2024-03-02T02:38:33;5.32;97.21
67157;SHT31;54086;50.126;8.710;2024-03-02T02:41:00;5.32;97.24
67157;SHT31;54086;50.126;8.710;2024-03-02T02:43:25;5.34;97.24
67157;SHT31;54086;50.126;8.710;2024-03-02T02:45:51;5.28;97.30
67157;SHT31;54086;50.126;8.710;2024-03-02T02:48:16;5.27;97.25
67157;SHT31;54086;50.126;8.710;2024-03-02T02:50:42;5.28;97.27
67157;SHT31;54086;50.126;8.710;2024-03-02T02:53:07;5.18;97.53
67157;SHT31;54086;50.126;8.710;2024-03-02T02:55:35;5.18;97.42
67157;SHT31;54086;50.126;8.710;2024-03-02T02:58:08;5.14;97.29
67157;SHT31;54086;50.126;8.710;2024-03-02T03:00:33;5.08;96.80
67157;SHT31;54086;50.126;8.710;2024-03-02T03:02:59;5.12;96.55
67157;SHT31;54086;50.126;8.710;2024-03-02T03:05:24;5.11;96.41
67157;SHT31;54086;50.126;8.710;2024-03-02T03:07:50;5.12;96.44
67157;SHT31;54086;50.126;8.710;2024-03-02T03:10:16;5.14;96.56
67157;SHT31;54086;50.126;8.710;2024-03-02T03:12:42;5.12;96.80
67157;SHT31;54086;50.126;8.710;2024-03-02T03:15:09;5.15;97.05
67157;SHT31;54086;50.126;8.710;2024-03-02T03:17:34;5.14;97.17
67157;SHT31;54086;50.126;8.710;2024-03-02T03:20:01;5.07;97.30
67157;SHT31;54086;50.126;8.710;2024-03-02T03:22:26;5.10;97.38
67157;SHT31;54086;50.126;8.710;2024-03-02T03:24:52;5.12;97.27
67157;SHT31;54086;50.126;8.710;2024-03-02T03:27:18;5.04;97.52
67157;SHT31;54086;50.126;8.710;2024-03-02T03:29:45;4.98;97.76
67157;SHT31;54086;50.126;8.710;2024-03-02T03:32:10;4.90;97.81
67157;SHT31;54086;50.126;8.710;2024-03-02T03:34:36;4.81;98.01
67157;SHT31;54086;50.126;8.710;2024-03-02T03:37:02;4.83;98.11
67157;SHT31;54086;50.126;8.710;2024-03-02T03:39:27;4.88;98.02
67157;SHT31;54086;50.126;8.710;2024-03-02T03:41:54;4.91;97.90
67157;SHT31;54086;50.126;8.710;2024-03-02T03:44:19;4.95;97.91
67157;SHT31;54086;50.126;8.710;2024-03-02T03:46:44;4.87;98.00
67157;SHT31;54086;50.126;8.710;2024-03-02T03:49:10;4.77;98.12
67157;SHT31;54086;50.126;8.710;2024-03-02T03:51:35;4.76;98.23
67157;SHT31;54086;50.126;8.710;2024-03-02T03:54:01;4.74;98.21
67157;SHT31;54086;50.126;8.710;2024-03-02T03:56:26;4.76;98.34
67157;SHT31;54086;50.126;8.710;2024-03-02T03:58:52;4.81;98.22
67157;SHT31;54086;50.126;8.710;2024-03-02T04:01:17;4.74;98.21
67157;SHT31;54086;50.126;8.710;2024-03-02T04:03:43;4.83;98.35
67157;SHT31;54086;50.126;8.710;2024-03-02T04:06:08;4.88;97.99
67157;SHT31;54086;50.126;8.710;2024-03-02T04:08:34;4.85;97.81
67157;SHT31;54086;50.126;8.710;2024-03-02T04:10:59;4.88;98.05
67157;SHT31;54086;50.126;8.710;2024-03-02T04:13:25;4.88;98.03
67157;SHT31;54086;50.126;8.710;2024-03-02T04:15:50;4.87;98.04
67157;SHT31;54086;50.126;8.710;2024-03-02T04:18:15;4.76;98.15
67157;SHT31;54086;50.126;8.710;2024-03-02T04:20:41;4.81;98.25
67157;SHT31;54086;50.126;8.710;2024-03-02T04:23:07;4.85;98.32
67157;SHT31;54086;50.126;8.710;2024-03-02T04:25:33;4.84;98.23
67157;SHT31;54086;50.126;8.710;2024-03-02T04:27:58;4.83;98.40
67157;SHT31;54086;50.126;8.710;2024-03-02T04:30:24;4.81;98.37
67157;SHT31;54086;50.126;8.710;2024-03-02T04:32:50;4.83;98.47
67157;SHT31;54086;50.126;8.710;2024-03-02T04:35:15;4.73;98.20
67157;SHT31;54086;50.126;8.710;2024-03-02T04:37:41;4.74;98.39
67157;SHT31;54086;50.126;8.710;2024-03-02T04:40:07;4.71;98.38
67157;SHT31;54086;50.126;8.710;2024-03-02T04:42:37;4.60;98.39
67157;SHT31;54086;50.126;8.710;2024-03-02T04:45:02;4.63;98.67
67157;SHT31;54086;50.126;8.710;2024-03-02T04:47:28;4.79;98.67
67157;SHT31;54086;50.126;8.710;2024-03-02T04:49:53;4.77;98.56
67157;SHT31;54086;50.126;8.710;2024-03-02T04:52:19;4.76;98.48
67157;SHT31;54086;50.126;8.710;2024-03-02T04:54:44;4.79;98.38
67157;SHT31;54086;50.126;8.710;2024-03-02T04:57:28;4.76;98.38
67157;SHT31;54086;50.126;8.710;2024-03-02T04:59:53;4.71;98.53
67157;SHT31;54086;50.126;8.710;2024-03-02T05:02:19;4.74;98.44
67157;SHT31;54086;50.126;8.710;2024-03-02T05:04:44;4.71;98.64
67157;SHT31;54086;50.126;8.710;2024-03-02T05:07:10;4.69;98.78
67157;SHT31;54086;50.126;8.710;2024-03-02T05:09:35;4.69;98.68
67157;SHT31;54086;50.126;8.710;2024-03-02T05:12:00;4.67;98.78
67157;SHT31;54086;50.126;8.710;2024-03-02T05:14:58;4.66;98.85
67157;SHT31;54086;50.126;8.710;2024-03-02T05:17:23;4.60;98.68
67157;SHT31;54086;50.126;8.710;2024-03-02T05:19:49;4.71;98.75
67157;SHT31;54086;50.126;8.710;2024-03-02T05:22:14;4.61;98.64
67157;SHT31;54086;50.126;8.710;2024-03-02T05:24:40;4.66;98.77
67157;SHT31;54086;50.126;8.710;2024-03-02T05:27:05;4.69;98.77
67157;SHT31;54086;50.126;8.710;2024-03-02T05:29:32;4.61;98.67
67157;SHT31;54086;50.126;8.710;2024-03-02T05:31:58;4.64;98.88
67157;SHT31;54086;50.126;8.710;2024-03-02T05:34:23;4.66;98.78
67157;SHT31;54086;50.126;8.710;2024-03-02T05:36:48;4.69;98.74
67157;SHT31;54086;50.126;8.710;2024-03-02T05:39:14;4.73;98.67
67157;SHT31;54086;50.126;8.710;2024-03-02T05:41:39;4.70;98.68
67157;SHT31;54086;50.126;8.710;2024-03-02T05:44:05;4.61;98.69
67157;SHT31;54086;50.126;8.710;2024-03-02T05:46:30;4.59;98.68
67157;SHT31;54086;50.126;8.710;2024-03-02T05:48:56;4.52;98.80
67157;SHT31;54086;50.126;8.710;2024-03-02T05:51:21;4.59;98.85
67157;SHT31;54086;50.126;8.710;2024-03-02T05:53:46;4.56;98.76
67157;SHT31;54086;50.126;8.710;2024-03-02T05:56:12;4.59;98.82
67157;SHT31;54086;50.126;8.710;2024-03-02T05:58:38;4.73;98.66
67157;SHT31;54086;50.126;8.710;2024-03-02T06:01:22;4.71;98.48
67157;SHT31;54086;50.126;8.710;2024-03-02T06:03:53;4.66;98.52
67157;SHT31;54086;50.126;8.710;2024-03-02T06:06:19;4.64;98.63
67157;SHT31;54086;50.126;8.710;2024-03-02T06:08:44;4.64;98.55
67157;SHT31;54086;50.126;8.710;2024-03-02T06:11:09;4.71;98.66
67157;SHT31;54086;50.126;8.710;2024-03-02T06:13:35;4.74;98.62
67157;SHT31;54086;50.126;8.710;2024-03-02T06:16:00;4.79;98.57
67157;SHT31;54086;50.126;8.710;2024-03-02T06:18:26;4.80;98.48
67157;SHT31;54086;50.126;8.710;2024-03-02T06:20:52;4.77;98.37
67157;SHT31;54086;50.126;8.710;2024-03-02T06:23:17;4.79;98.40
67157;SHT31;54086;50.126;8.710;2024-03-02T06:25:43;4.81;98.46
67157;SHT31;54086;50.126;8.710;2024-03-02T06:28:08;4.84;98.40
67157;SHT31;54086;50.126;8.710;2024-03-02T06:30:34;4.90;98.32
67157;SHT31;54086;50.126;8.710;2024-03-02T06:32:59;4.91;98.36
67157;SHT31;54086;50.126;8.710;2024-03-02T06:35:24;4.95;98.23
67157;SHT31;54086;50.126;8.710;2024-03-02T06:37:50;5.02;98.13
67157;SHT31;54086;50.126;8.710;2024-03-02T06:40:16;5.12;97.89
67157;SHT31;54086;50.126;8.710;2024-03-02T06:42:41;5.11;97.88
67157;SHT31;54086;50.126;8.710;2024-03-02T06:45:07;5.10;97.81
67157;SHT31;54086;50.126;8.710;2024-03-02T06:47:32;5.08;97.90
67157;SHT31;54086;50.126;8.710;2024-03-02T06:49:57;5.10;97.81
67157;SHT31;54086;50.126;8.710;2024-03-02T06:52:24;5.11;97.82
67157;SHT31;54086;50.126;8.710;2024-03-02T06:54:49;5.05;97.99
67157;SHT31;54086;50.126;8.710;2024-03-02T06:57:14;5.17;97.77
67157;SHT31;54086;50.126;8.710;2024-03-02T06:59:42;5.17;97.73
67157;SHT31;54086;50.126;8.710;2024-03-02T07:02:07;5.22;97.68
67157;SHT31;54086;50.126;8.710;2024-03-02T07:04:34;5.28;97.47
67157;SHT31;54086;50.126;8.710;2024-03-02T07:06:59;5.28;97.50
67157;SHT31;54086;50.126;8.710;2024-03-02T07:09:24;5.21;97.50
67157;SHT31;54086;50.126;8.710;2024-03-02T07:11:51;5.29;97.56
67157;SHT31;54086;50.126;8.710;2024-03-02T07:14:16;5.29;97.44
67157;SHT31;54086;50.126;8.710;2024-03-02T07:16:41;5.27;97.38
67157;SHT31;54086;50.126;8.710;2024-03-02T07:19:08;5.25;97.51
67157;SHT31;54086;50.126;8.710;2024-03-02T07:21:34;5.32;97.30
67157;SHT31;54086;50.126;8.710;2024-03-02T07:23:59;5.22;97.27
67157;SHT31;54086;50.126;8.710;2024-03-02T07:26:28;5.22;97.37
67157;SHT31;54086;50.126;8.710;2024-03-02T07:28:53;5.24;97.33
67157;SHT31;54086;50.126;8.710;2024-03-02T07:31:19;5.20;97.39
67157;SHT31;54086;50.126;8.710;2024-03-02T07:33:45;5.15;97.48
67157;SHT31;54086;50.126;8.710;2024-03-02T07:36:11;5.17;97.40
67157;SHT31;54086;50.126;8.710;2024-03-02T07:38:37;5.28;97.32
67157;SHT31;54086;50.126;8.710;2024-03-02T07:41:03;5.18;97.17
67157;SHT31;54086;50.126;8.710;2024-03-02T07:43:30;5.20;97.25
67157;SHT31;54086;50.126;8.710;2024-03-02T07:45:57;5.21;97.30
67157;SHT31;54086;50.126;8.710;2024-03-02T07:48:22;5.22;97.32
67157;SHT31;54086;50.126;8.710;2024-03-02T07:50:48;5.31;97.27
67157;SHT31;54086;50.126;8.710;2024-03-02T07:53:13;5.42;96.95
67157;SHT31;54086;50.126;8.710;2024-03-02T07:55:40;5.65;96.51
67157;SHT31;54086;50.126;8.710;2024-03-02T07:58:06;5.87;96.20
67157;SHT31;54086;50.126;8.710;2024-03-02T08:00:31;5.96;95.87
67157;SHT31;54086;50.126;8.710;2024-03-02T08:02:57;6.56;94.76
67157;SHT31;54086;50.126;8.710;2024-03-02T08:05:22;6.80;93.64
67157;SHT31;54086;50.126;8.710;2024-03-02T08:07:48;7.48;92.32
67157;SHT31;54086;50.126;8.710;2024-03-02T08:10:18;7.46;92.02
67157;SHT31;54086;50.126;8.710;2024-03-02T08:12:43;8.06;90.76
67157;SHT31;54086;50.126;8.710;2024-03-02T08:15:09;7.46;91.10
67157;SHT31;54086;50.126;8.710;2024-03-02T08:17:34;7.09;92.32
67157;SHT31;54086;50.126;8.710;2024-03-02T08:20:00;7.14;92.66
67157;SHT31;54086;50.126;8.710;2024-03-02T08:22:25;7.88;91.52
67157;SHT31;54086;50.126;8.710;2024-03-02T08:24:51;8.03;89.35
67157;SHT31;54086;50.126;8.710;2024-03-02T08:27:16;8.44;89.08
67157;SHT31;54086;50.126;8.710;2024-03-02T08:29:42;8.05;89.19
67157;SHT31;54086;50.126;8.710;2024-03-02T08:32:07;7.92;90.01
67157;SHT31;54086;50.126;8.710;2024-03-02T08:34:33;7.57;90.58
67157;SHT31;54086;50.126;8.710;2024-03-02T08:37:01;7.65;90.76
67157;SHT31;54086;50.126;8.710;2024-03-02T08:39:27;7.46;91.19
67157;SHT31;54086;50.126;8.710;2024-03-02T08:41:52;7.20;91.87
67157;SHT31;54086;50.126;8.710;2024-03-02T08:44:18;7.11;92.21
67157;SHT31;54086;50.126;8.710;2024-03-02T08:46:44;7.19;92.30
67157;SHT31;54086;50.126;8.710;2024-03-02T08:49:09;7.40;92.04
67157;SHT31;54086;50.126;8.710;2024-03-02T08:51:35;7.43;91.65
67157;SHT31;54086;50.126;8.710;2024-03-02T08:54:00;7.38;91.24
67157;SHT31;54086;50.126;8.710;2024-03-02T08:56:26;7.44;91.31
67157;SHT31;54086;50.126;8.710;2024-03-02T08:58:52;7.60;91.15
67157;SHT31;54086;50.126;8.710;2024-03-02T09:01:18;7.61;91.08
67157;SHT31;54086;50.126;8.710;2024-03-02T09:03:45;7.48;90.71
67157;SHT31;54086;50.126;8.710;2024-03-02T09:06:11;7.50;90.93
67157;SHT31;54086;50.126;8.710;2024-03-02T09:08:40;7.60;90.71
67157;SHT31;54086;50.126;8.710;2024-03-02T09:11:06;7.65;90.81
67157;SHT31;54086;50.126;8.710;2024-03-02T09:13:32;7.51;90.50
67157;SHT31;54086;50.126;8.710;2024-03-02T09:15:58;7.78;90.62
67157;SHT31;54086;50.126;8.710;2024-03-02T09:18:23;7.91;90.05
67157;SHT31;54086;50.126;8.710;2024-03-02T09:20:49;8.03;89.80
67157;SHT31;54086;50.126;8.710;2024-03-02T09:23:14;8.06;89.81
67157;SHT31;54086;50.126;8.710;2024-03-02T09:25:40;8.14;89.09
67157;SHT31;54086;50.126;8.710;2024-03-02T09:28:05;8.46;88.19
67157;SHT31;54086;50.126;8.710;2024-03-02T09:30:32;8.60;87.88
67157;SHT31;54086;50.126;8.710;2024-03-02T09:32:57;8.74;87.20
67157;SHT31;54086;50.126;8.710;2024-03-02T09:35:23;8.82;87.21
67157;SHT31;54086;50.126;8.710;2024-03-02T09:37:48;9.01;87.59
67157;SHT31;54086;50.126;8.710;2024-03-02T09:40:14;8.97;87.44
67157;SHT31;54086;50.126;8.710;2024-03-02T09:42:40;9.04;87.17
67157;SHT31;54086;50.126;8.710;2024-03-02T09:45:06;8.98;87.57
67157;SHT31;54086;50.126;8.710;2024-03-02T09:47:32;8.92;87.40
67157;SHT31;54086;50.126;8.710;2024-03-02T09:49:58;9.18;87.20
67157;SHT31;54086;50.126;8.710;2024-03-02T09:52:23;9.19;86.57
67157;SHT31;54086;50.126;8.710;2024-03-02T09:54:49;9.40;86.00
67157;SHT31;54086;50.126;8.710;2024-03-02T09:57:15;9.38;85.77
67157;SHT31;54086;50.126;8.710;2024-03-02T09:59:40;9.70;84.91
67157;SHT31;54086;50.126;8.710;2024-03-02T10:02:06;9.67;85.09
67157;SHT31;54086;50.126;8.710;2024-03-02T10:04:32;9.90;84.66
67157;SHT31;54086;50.126;8.710;2024-03-02T10:07:11;9.90;84.66
67157;SHT31;54086;50.126;8.710;2024-03-02T10:09:43;10.45;83.76
67157;SHT31;54086;50.126;8.710;2024-03-02T10:12:11;10.63;82.44
67157;SHT31;54086;50.126;8.710;2024-03-02T10:14:38;11.28;80.89
67157;SHT31;54086;50.126;8.710;2024-03-02T10:17:08;11.20;80.98
67157;SHT31;54086;50.126;8.710;2024-03-02T10:19:34;11.16;80.37
67157;SHT31;54086;50.126;8.710;2024-03-02T10:22:04;11.20;80.32
67157;SHT31;54086;50.126;8.710;2024-03-02T10:24:41;10.95;81.30
67157;SHT31;54086;50.126;8.710;2024-03-02T10:27:17;10.99;80.83
67157;SHT31;54086;50.126;8.710;2024-03-02T10:29:46;11.06;81.03
67157;SHT31;54086;50.126;8.710;2024-03-02T10:32:12;11.68;79.57
67157;SHT31;54086;50.126;8.710;2024-03-02T10:34:42;11.45;79.40
67157;SHT31;54086;50.126;8.710;2024-03-02T10:37:08;11.61;78.19
67157;SHT31;54086;50.126;8.710;2024-03-02T10:39:39;11.82;78.30
67157;SHT31;54086;50.126;8.710;2024-03-02T10:42:06;12.19;77.25
67157;SHT31;54086;50.126;8.710;2024-03-02T10:44:32;12.36;76.95
67157;SHT31;54086;50.126;8.710;2024-03-02T10:47:02;12.47;75.97
67157;SHT31;54086;50.126;8.710;2024-03-02T10:49:31;12.22;76.44
67157;SHT31;54086;50.126;8.710;2024-03-02T10:52:00;12.68;76.37
67157;SHT31;54086;50.126;8.710;2024-03-02T10:54:26;12.87;75.15
67157;SHT31;54086;50.126;8.710;2024-03-02T10:57:04;13.25;74.51
67157;SHT31;54086;50.126;8.710;2024-03-02T10:59:34;13.39;74.18
67157;SHT31;54086;50.126;8.710;2024-03-02T11:02:01;13.98;71.97
67157;SHT31;54086;50.126;8.710;2024-03-02T11:04:34;14.01;72.93
67157;SHT31;54086;50.126;8.710;2024-03-02T11:07:02;13.60;73.20
67157;SHT31;54086;50.126;8.710;2024-03-02T11:09:30;14.00;72.33
67157;SHT31;54086;50.126;8.710;2024-03-02T11:14:30;13.84;72.80
67157;SHT31;54086;50.126;8.710;2024-03-02T11:16:58;13.14;73.15
67157;SHT31;54086;50.126;8.710;2024-03-02T11:19:24;12.89;73.42
67157;SHT31;54086;50.126;8.710;2024-03-02T11:21:50;13.52;72.55
67157;SHT31;54086;50.126;8.710;2024-03-02T11:24:34;13.66;71.37
67157;SHT31;54086;50.126;8.710;2024-03-02T11:27:06;14.34;70.81
67157;SHT31;54086;50.126;8.710;2024-03-02T11:32:26;14.79;69.54
67157;SHT31;54086;50.126;8.710;2024-03-02T11:34:52;14.61;68.74
67157;SHT31;54086;50.126;8.710;2024-03-02T11:37:18;14.34;68.95
67157;SHT31;54086;50.126;8.710;2024-03-02T11:39:49;14.15;68.80
67157;SHT31;54086;50.126;8.710;2024-03-02T11:42:15;14.13;69.24
67157;SHT31;54086;50.126;8.710;2024-03-02T11:44:45;14.42;68.23
67157;SHT31;54086;50.126;8.710;2024-03-02T11:47:12;14.86;67.58
67157;SHT31;54086;50.126;8.710;2024-03-02T11:49:54;14.76;67.03
67157;SHT31;54086;50.126;8.710;2024-03-02T11:52:20;14.72;67.97
67157;SHT31;54086;50.126;8.710;2024-03-02T11:54:47;15.27;66.35
67157;SHT31;54086;50.126;8.710;2024-03-02T11:57:18;16.29;64.46
67157;SHT31;54086;50.126;8.710;2024-03-02T11:59:45;15.89;64.56
67157;SHT31;54086;50.126;8.710;2024-03-02T12:02:20;16.49;63.90
67157;SHT31;54086;50.126;8.710;2024-03-02T12:04:46;15.58;65.74
67157;SHT31;54086;50.126;8.710;2024-03-02T12:07:19;15.50;65.04
67157;SHT31;54086;50.126;8.710;2024-03-02T12:09:45;15.86;64.87
67157;SHT31;54086;50.126;8.710;2024-03-02T12:12:11;15.84;64.44
67157;SHT31;54086;50.126;8.710;2024-03-02T12:14:37;15.88;64.29
67157;SHT31;54086;50.126;8.710;2024-03-02T12:17:05;16.16;64.37
67157;SHT31;54086;50.126;8.710;2024-03-02T12:19:32;16.23;64.51
67157;SHT31;54086;50.126;8.710;2024-03-02T12:21:58;16.30;64.36
67157;SHT31;54086;50.126;8.710;2024-03-02T12:24:26;15.99;64.68
67157;SHT31;54086;50.126;8.710;2024-03-02T12:26:51;16.83;62.75
67157;SHT31;54086;50.126;8.710;2024-03-02T12:29:19;16.44;63.28
67157;SHT31;54086;50.126;8.710;2024-03-02T12:31:48;15.69;64.54
67157;SHT31;54086;50.126;8.710;2024-03-02T12:34:15;15.68;65.45
67157;SHT31;54086;50.126;8.710;2024-03-02T12:36:40;15.95;65.08
67157;SHT31;54086;50.126;8.710;2024-03-02T12:39:09;15.85;64.02
67157;SHT31;54086;50.126;8.710;2024-03-02T12:41:39;15.84;64.30
67157;SHT31;54086;50.126;8.710;2024-03-02T12:44:05;16.10;63.82
67157;SHT31;54086;50.126;8.710;2024-03-02T12:46:31;16.27;64.26
67157;SHT31;54086;50.126;8.710;2024-03-02T12:48:58;16.74;62.98
67157;SHT31;54086;50.126;8.710;2024-03-02T12:51:24;17.35;62.23
67157;SHT31;54086;50.126;8.710;2024-03-02T12:53:54;17.77;61.42
67157;SHT31;54086;50.126;8.710;2024-03-02T12:56:20;17.10;61.77
67157;SHT31;54086;50.126;8.710;2024-03-02T12:58:46;17.54;60.68
67157;SHT31;54086;50.126;8.710;2024-03-02T13:01:14;17.15;61.48
67157;SHT31;54086;50.126;8.710;2024-03-02T13:03:40;17.14;61.63
67157;SHT31;54086;50.126;8.710;2024-03-02T13:06:07;16.77;61.78
67157;SHT31;54086;50.126;8.710;2024-03-02T13:08:35;16.71;62.01
67157;SHT31;54086;50.126;8.710;2024-03-02T13:11:01;16.74;61.63
67157;SHT31;54086;50.126;8.710;2024-03-02T13:13:30;16.74;60.93
67157;SHT31;54086;50.126;8.710;2024-03-02T13:15:56;16.37;61.65
67157;SHT31;54086;50.126;8.710;2024-03-02T13:18:22;16.73;60.65
67157;SHT31;54086;50.126;8.710;2024-03-02T13:20:47;17.04;60.69
67157;SHT31;54086;50.126;8.710;2024-03-02T13:23:13;16.59;60.97
67157;SHT31;54086;50.126;8.710;2024-03-02T13:25:39;17.25;60.44
67157;SHT31;54086;50.126;8.710;2024-03-02T13:28:05;16.64;60.58
67157;SHT31;54086;50.126;8.710;2024-03-02T13:30:31;17.01;60.19
67157;SHT31;54086;50.126;8.710;2024-03-02T13:32:57;17.11;60.34
67157;SHT31;54086;50.126;8.710;2024-03-02T13:35:22;16.40;61.76
67157;SHT31;54086;50.126;8.710;2024-03-02T13:37:47;16.17;62.77
67157;SHT31;54086;50.126;8.710;2024-03-02T13:40:13;15.64;63.87
67157;SHT31;54086;50.126;8.710;2024-03-02T13:42:43;15.34;64.77
67157;SHT31;54086;50.126;8.710;2024-03-02T13:45:08;15.58;64.83
67157;SHT31;54086;50.126;8.710;2024-03-02T13:47:34;15.37;64.55
67157;SHT31;54086;50.126;8.710;2024-03-02T13:49:59;15.81;64.39
67157;SHT31;54086;50.126;8.710;2024-03-02T13:52:25;15.72;64.63
67157;SHT31;54086;50.126;8.710;2024-03-02T13:54:51;15.66;64.33
67157;SHT31;54086;50.126;8.710;2024-03-02T13:57:18;15.71;64.43
67157;SHT31;54086;50.126;8.710;2024-03-02T13:59:45;15.72;64.42
67157;SHT31;54086;50.126;8.710;2024-03-02T14:02:12;15.82;64.24
67157;SHT31;54086;50.126;8.710;2024-03-02T14:04:37;15.79;64.37
67157;SHT31;54086;50.126;8.710;2024-03-02T14:07:04;15.85;64.05
67157;SHT31;54086;50.126;8.710;2024-03-02T14:09:32;15.55;64.39
67157;SHT31;54086;50.126;8.710;2024-03-02T14:11:57;15.61;64.60
67157;SHT31;54086;50.126;8.710;2024-03-02T14:14:23;15.72;64.37
67157;SHT31;54086;50.126;8.710;2024-03-02T14:16:48;15.77;64.34
67157;SHT31;54086;50.126;8.710;2024-03-02T14:19:14;15.71;63.87
67157;SHT31;54086;50.126;8.710;2024-03-02T14:21:39;15.44;64.25
67157;SHT31;54086;50.126;8.710;2024-03-02T14:24:05;15.65;63.95
67157;SHT31;54086;50.126;8.710;2024-03-02T14:26:32;15.72;63.94
67157;SHT31;54086;50.126;8.710;2024-03-02T14:28:58;15.86;63.89
67157;SHT31;54086;50.126;8.710;2024-03-02T14:31:24;15.66;63.78
67157;SHT31;54086;50.126;8.710;2024-03-02T14:33:51;15.57;63.97
67157;SHT31;54086;50.126;8.710;2024-03-02T14:36:16;15.45;64.26
67157;SHT31;54086;50.126;8.710;2024-03-02T14:38:42;15.51;64.65
67157;SHT31;54086;50.126;8.710;2024-03-02T14:41:07;15.50;64.55
67157;SHT31;54086;50.126;8.710;2024-03-02T14:43:32;15.44;64.06
67157;SHT31;54086;50.126;8.710;2024-03-02T14:45:58;15.48;64.34
67157;SHT31;54086;50.126;8.710;2024-03-02T14:48:24;15.40;64.39
67157;SHT31;54086;50.126;8.710;2024-03-02T14:50:50;15.40;64.45
67157;SHT31;54086;50.126;8.710;2024-03-02T14:53:16;15.30;64.58
67157;SHT31;54086;50.126;8.710;2024-03-02T14:55:41;15.28;64.71
67157;SHT31;54086;50.126;8.710;2024-03-02T14:58:07;15.26;64.96
67157;SHT31;54086;50.126;8.710;2024-03-02T15:00:33;15.23;65.64
67157;SHT31;54086;50.126;8.710;2024-03-02T15:02:59;15.26;65.40
67157;SHT31;54086;50.126;8.710;2024-03-02T15:05:24;15.10;65.63
67157;SHT31;54086;50.126;8.710;2024-03-02T15:07:51;15.10;66.22
67157;SHT31;54086;50.126;8.710;2024-03-02T15:10:16;15.08;65.66
67157;SHT31;54086;50.126;8.710;2024-03-02T15:12:42;14.99;66.00
67157;SHT31;54086;50.126;8.710;2024-03-02T15:15:08;15.10;65.90
67157;SHT31;54086;50.126;8.710;2024-03-02T15:17:36;15.08;66.20
67157;SHT31;54086;50.126;8.710;2024-03-02T15:20:01;15.06;66.23
67157;SHT31;54086;50.126;8.710;2024-03-02T15:22:27;15.02;66.12
67157;SHT31;54086;50.126;8.710;2024-03-02T15:24:52;14.97;66.04
67157;SHT31;54086;50.126;8.710;2024-03-02T15:27:19;14.95;65.97
67157;SHT31;54086;50.126;8.710;2024-03-02T15:29:44;15.02;65.48
67157;SHT31;54086;50.126;8.710;2024-03-02T15:32:10;15.00;66.02
67157;SHT31;54086;50.126;8.710;2024-03-02T15:34:35;15.00;65.86
67157;SHT31;54086;50.126;8.710;2024-03-02T15:37:01;15.04;65.05
67157;SHT31;54086;50.126;8.710;2024-03-02T15:39:26;15.06;64.68
67157;SHT31;54086;50.126;8.710;2024-03-02T15:41:52;15.08;64.93